createdAt,value
2022-09-15T00:04:27.261Z,62.61
2022-09-15T00:26:15.750Z,57.09
2022-09-15T00:48:01.430Z,69.19
2022-09-15T01:09:51.866Z,62.97
2022-09-15T01:32:03.394Z,62.95
2022-09-15T01:53:51.160Z,55.83
2022-09-15T02:15:43.668Z,68.35
2022-09-15T02:37:30.309Z,56.50
2022-09-15T02:59:16.204Z,67.32
2022-09-15T03:21:02.147Z,61.36
2022-09-15T03:42:47.935Z,60.62
2022-09-15T04:04:33.659Z,61.23
2022-09-15T04:26:23.541Z,57.00
2022-09-15T04:48:09.253Z,66.65
2022-09-15T05:09:55.636Z,58.16
2022-09-15T05:31:41.443Z,63.35
2022-09-15T05:53:28.072Z,57.16
2022-09-15T06:15:14.239Z,64.67
2022-09-15T06:36:59.913Z,57.39
2022-09-15T07:05:59.053Z,60.98
2022-09-15T07:27:45.047Z,59.53
2022-09-15T07:49:31.399Z,60.63
2022-09-15T08:11:19.540Z,52.62
2022-09-15T08:33:05.549Z,50.73
2022-09-15T08:54:55.093Z,38.41
2022-09-15T09:16:56.228Z,38.57
2022-09-15T09:38:44.929Z,41.88
2022-09-15T10:00:38.524Z,51.95
2022-09-15T10:22:29.214Z,57.54
2022-09-15T10:44:34.068Z,55.27
2022-09-15T11:06:27.415Z,51.65
2022-09-15T11:28:21.440Z,46.08
2022-09-15T11:50:18.219Z,48.74
2022-09-15T12:12:08.636Z,52.71
2022-09-15T12:33:59.358Z,54.97
2022-09-15T12:55:52.823Z,57.15
2022-09-15T13:17:42.378Z,58.90
2022-09-15T13:39:54.034Z,58.57
2022-09-15T14:01:40.173Z,57.96
2022-09-15T14:23:26.082Z,59.28
2022-09-15T15:07:27.632Z,58.87
2022-09-15T15:29:41.009Z,58.55
2022-09-15T15:51:26.749Z,55.59
2022-09-15T16:13:16.899Z,56.56
2022-09-15T16:35:03.189Z,60.79
2022-09-15T16:56:49.144Z,58.07
2022-09-15T17:18:34.921Z,58.71
2022-09-15T17:40:22.283Z,62.42
2022-09-15T18:02:18.460Z,59.29
2022-09-15T18:24:05.337Z,60.06
2022-09-15T18:45:51.540Z,60.06
2022-09-15T19:07:37.238Z,59.56
2022-09-15T19:29:29.000Z,62.03
2022-09-15T19:51:15.827Z,58.97
2022-09-15T20:13:02.921Z,60.04
2022-09-15T20:34:52.661Z,60.60
2022-09-15T20:56:40.541Z,60.34
2022-09-15T21:18:27.429Z,60.10
2022-09-15T21:40:14.011Z,60.19
2022-09-15T22:01:59.837Z,60.00
2022-09-15T22:23:47.595Z,60.12
2022-09-15T22:45:33.530Z,60.46
2022-09-15T23:07:19.287Z,61.20
2022-09-15T23:29:04.892Z,59.72
2022-09-15T23:50:50.686Z,59.98
